createdAt,value
2018-07-15T00:02:27.463Z,59.89
2018-07-15T00:04:56.227Z,59.81
2018-07-15T00:07:24.989Z,59.20
2018-07-15T00:09:53.782Z,59.52
2018-07-15T00:12:22.562Z,59.98
2018-07-15T00:14:51.327Z,59.59
2018-07-15T00:17:20.123Z,60.71
2018-07-15T00:19:49.012Z,59.74
2018-07-15T00:22:17.766Z,60.21
2018-07-15T00:24:46.575Z,60.60
2018-07-15T00:27:15.346Z,59.88
2018-07-15T00:29:44.106Z,60.67
2018-07-15T00:32:12.857Z,60.23
2018-07-15T00:34:41.666Z,60.96
2018-07-15T00:37:10.421Z,60.72
2018-07-15T00:39:39.241Z,60.02
2018-07-15T00:42:08.023Z,60.45
2018-07-15T00:44:36.795Z,60.35
2018-07-15T00:47:05.599Z,60.26
2018-07-15T00:49:34.357Z,61.01
2018-07-15T00:52:03.158Z,60.61
2018-07-15T00:54:31.952Z,60.34
2018-07-15T00:57:00.777Z,60.62
2018-07-15T00:59:30.216Z,61.13
2018-07-15T01:01:59.032Z,60.97
2018-07-15T01:04:27.825Z,61.49
2018-07-15T01:06:56.669Z,61.56
2018-07-15T01:09:25.465Z,61.58
2018-07-15T01:11:54.798Z,61.66
2018-07-15T01:14:23.566Z,61.75
2018-07-15T01:16:52.310Z,61.26
2018-07-15T01:19:21.081Z,61.62
2018-07-15T01:21:50.046Z,61.72
2018-07-15T01:24:18.805Z,62.13
2018-07-15T01:26:47.536Z,61.30
2018-07-15T01:29:16.294Z,61.84
2018-07-15T01:31:45.064Z,62.84
2018-07-15T01:34:13.821Z,61.97
2018-07-15T01:36:42.546Z,61.73
2018-07-15T01:39:11.768Z,62.17
2018-07-15T01:41:40.869Z,62.52
2018-07-15T01:44:09.650Z,62.18
2018-07-15T01:46:38.507Z,62.82
2018-07-15T01:49:07.279Z,63.00
2018-07-15T01:51:36.090Z,62.34
2018-07-15T01:54:04.927Z,63.09
2018-07-15T01:56:33.705Z,63.54
2018-07-15T01:59:02.594Z,62.92
2018-07-15T02:01:31.401Z,63.54
2018-07-15T02:04:00.182Z,63.79
2018-07-15T02:06:28.972Z,63.44
2018-07-15T02:08:57.802Z,63.98
2018-07-15T02:11:26.601Z,64.47
2018-07-15T02:13:55.418Z,63.63
2018-07-15T02:16:24.198Z,63.97
2018-07-15T02:18:53.126Z,63.22
2018-07-15T02:21:22.112Z,62.82
2018-07-15T02:23:50.888Z,63.12
2018-07-15T02:26:19.650Z,63.33
2018-07-15T02:28:48.473Z,63.93
2018-07-15T02:31:17.627Z,63.50
2018-07-15T02:33:46.358Z,63.79
2018-07-15T02:36:15.123Z,63.25
2018-07-15T02:38:43.872Z,63.20
2018-07-15T02:41:13.013Z,63.71
2018-07-15T02:43:41.809Z,64.31
2018-07-15T02:46:10.661Z,64.26
2018-07-15T02:48:39.458Z,64.35
2018-07-15T02:51:08.262Z,64.34
2018-07-15T02:53:37.034Z,65.02
2018-07-15T02:56:06.149Z,64.85
2018-07-15T02:58:34.911Z,64.64
2018-07-15T03:01:03.734Z,64.92
2018-07-15T03:03:32.494Z,63.99
2018-07-15T03:06:01.273Z,65.03
2018-07-15T03:08:30.049Z,64.31
2018-07-15T03:10:58.872Z,65.19
2018-07-15T03:13:27.723Z,64.95
2018-07-15T03:15:56.527Z,64.63
2018-07-15T03:18:25.379Z,64.02
2018-07-15T03:20:54.498Z,64.60
2018-07-15T03:23:24.325Z,63.80
2018-07-15T03:25:53.111Z,64.71
2018-07-15T03:28:21.884Z,64.22
2018-07-15T03:30:50.691Z,63.54
2018-07-15T03:33:19.449Z,63.52
2018-07-15T03:35:48.270Z,63.97
2018-07-15T03:38:17.055Z,64.30
2018-07-15T03:40:45.853Z,62.88
2018-07-15T03:43:14.687Z,63.37
2018-07-15T03:45:43.473Z,63.18
2018-07-15T03:48:12.260Z,63.54
2018-07-15T03:50:41.079Z,62.94
2018-07-15T03:53:09.982Z,63.74
2018-07-15T03:55:38.753Z,63.23
2018-07-15T03:58:07.540Z,62.90
2018-07-15T04:00:36.397Z,62.62
2018-07-15T04:03:05.335Z,62.57
2018-07-15T04:05:34.166Z,62.93
2018-07-15T04:08:03.025Z,63.13
2018-07-15T04:10:31.938Z,62.78
2018-07-15T04:13:00.729Z,62.53
2018-07-15T04:15:29.523Z,62.20
2018-07-15T04:18:06.278Z,62.09
2018-07-15T04:20:37.134Z,61.96
2018-07-15T04:23:06.615Z,62.66
2018-07-15T04:25:35.809Z,61.56
2018-07-15T04:28:05.112Z,61.53
2018-07-15T04:30:33.990Z,61.61
2018-07-15T04:33:02.776Z,62.16
2018-07-15T04:35:31.553Z,62.26
2018-07-15T04:38:00.415Z,61.54
2018-07-15T04:40:29.360Z,61.29
2018-07-15T04:42:58.204Z,62.16
2018-07-15T04:45:26.949Z,61.93
2018-07-15T04:47:55.761Z,60.40
2018-07-15T04:50:24.515Z,61.75
2018-07-15T04:52:53.282Z,60.41
2018-07-15T04:55:22.070Z,59.08
2018-07-15T04:57:51.101Z,57.53
2018-07-15T05:00:19.875Z,53.39
2018-07-15T05:02:48.632Z,50.83
2018-07-15T05:05:17.473Z,48.02
2018-07-15T05:07:46.237Z,47.78
2018-07-15T05:10:15.138Z,46.68
2018-07-15T05:12:43.951Z,44.36
2018-07-15T05:15:12.740Z,43.60
2018-07-15T05:17:41.501Z,43.69
2018-07-15T05:20:10.262Z,42.21
2018-07-15T05:22:39.099Z,42.10
2018-07-15T05:25:07.837Z,42.07
2018-07-15T05:27:36.625Z,42.30
2018-07-15T05:30:07.110Z,42.60
2018-07-15T05:32:35.942Z,41.49
2018-07-15T05:35:05.021Z,42.06
2018-07-15T05:37:33.902Z,43.05
2018-07-15T05:40:02.728Z,42.21
2018-07-15T05:42:31.550Z,42.00
2018-07-15T05:45:00.350Z,42.56
2018-07-15T05:47:29.179Z,43.42
2018-07-15T05:49:57.956Z,42.65
2018-07-15T05:52:26.735Z,43.03
2018-07-15T05:54:55.538Z,42.35
2018-07-15T05:57:24.307Z,43.80
2018-07-15T05:59:53.048Z,44.45
2018-07-15T06:02:22.026Z,45.80
2018-07-15T06:04:50.844Z,46.27
2018-07-15T06:07:19.650Z,46.91
2018-07-15T06:09:48.462Z,48.13
2018-07-15T06:12:17.260Z,48.88
2018-07-15T06:14:45.985Z,49.69
2018-07-15T06:17:14.866Z,48.53
2018-07-15T06:19:43.736Z,48.87
2018-07-15T06:22:12.594Z,49.63
2018-07-15T06:24:41.368Z,49.80
2018-07-15T06:27:10.195Z,50.70
2018-07-15T06:29:39.339Z,50.44
2018-07-15T06:32:08.171Z,50.20
2018-07-15T06:34:36.976Z,51.96
2018-07-15T06:37:06.410Z,51.69
2018-07-15T06:39:35.242Z,51.75
2018-07-15T06:42:04.094Z,52.62
2018-07-15T06:44:32.879Z,52.61
2018-07-15T06:47:01.700Z,52.34
2018-07-15T06:49:30.600Z,52.25
2018-07-15T06:52:00.171Z,51.91
2018-07-15T06:54:29.116Z,51.62
2018-07-15T06:56:58.045Z,51.56
2018-07-15T06:59:26.826Z,51.37
2018-07-15T07:01:55.587Z,51.19
2018-07-15T07:04:24.441Z,50.22
2018-07-15T07:06:53.269Z,51.35
2018-07-15T07:09:22.028Z,51.42
2018-07-15T07:11:50.886Z,51.89
2018-07-15T07:14:20.176Z,51.32
2018-07-15T07:16:49.074Z,51.60
2018-07-15T07:19:17.908Z,51.18
2018-07-15T07:21:46.751Z,52.50
2018-07-15T07:24:15.629Z,52.02
2018-07-15T07:26:44.446Z,51.16
2018-07-15T07:29:13.209Z,50.36
2018-07-15T07:31:42.002Z,49.50
2018-07-15T07:34:10.798Z,50.56
2018-07-15T07:36:39.594Z,50.36
2018-07-15T07:39:08.746Z,49.10
2018-07-15T07:41:38.041Z,48.63
2018-07-15T07:44:06.802Z,50.35
2018-07-15T07:46:35.598Z,50.33
2018-07-15T07:49:04.425Z,50.63
2018-07-15T07:51:33.238Z,49.73
2018-07-15T07:54:02.014Z,49.69
2018-07-15T07:56:30.798Z,48.32
2018-07-15T07:58:59.607Z,46.62
2018-07-15T08:01:28.359Z,44.63
2018-07-15T08:03:57.110Z,46.28
2018-07-15T08:06:26.210Z,46.92
2018-07-15T08:08:58.513Z,47.31
2018-07-15T08:11:27.293Z,46.85
2018-07-15T08:13:56.114Z,44.83
2018-07-15T08:16:24.892Z,43.07
2018-07-15T08:18:53.688Z,45.00
2018-07-15T08:21:22.894Z,44.10
2018-07-15T08:23:51.673Z,43.52
2018-07-15T08:26:20.446Z,43.35
2018-07-15T08:28:49.209Z,44.18
2018-07-15T08:31:33.573Z,40.26
2018-07-15T08:34:03.045Z,38.97
2018-07-15T08:36:31.799Z,39.52
2018-07-15T08:39:01.026Z,40.20
2018-07-15T08:41:30.430Z,40.44
2018-07-15T08:43:59.186Z,40.39
2018-07-15T08:46:28.075Z,40.90
2018-07-15T08:48:56.905Z,40.61
2018-07-15T08:51:25.703Z,39.30
2018-07-15T08:53:54.501Z,40.14
2018-07-15T08:56:23.322Z,40.77
2018-07-15T08:58:52.182Z,39.51
2018-07-15T09:01:20.985Z,38.62
2018-07-15T09:03:50.010Z,39.49
2018-07-15T09:06:18.842Z,40.50
2018-07-15T09:08:47.601Z,40.15
2018-07-15T09:11:16.391Z,39.32
2018-07-15T09:13:45.202Z,41.06
2018-07-15T09:16:14.020Z,40.99
2018-07-15T09:18:42.846Z,39.49
2018-07-15T09:21:11.653Z,39.76
2018-07-15T09:23:40.574Z,39.06
2018-07-15T09:26:09.397Z,38.04
2018-07-15T09:28:38.163Z,39.20
2018-07-15T09:31:07.067Z,39.95
2018-07-15T09:33:36.086Z,40.65
2018-07-15T09:36:04.939Z,37.93
2018-07-15T09:38:33.732Z,37.54
2018-07-15T09:41:02.505Z,38.21
2018-07-15T09:43:32.291Z,38.54
2018-07-15T09:46:01.057Z,38.67
2018-07-15T09:48:29.870Z,39.80
2018-07-15T09:50:58.623Z,40.15
2018-07-15T09:53:27.812Z,39.98
2018-07-15T09:55:56.599Z,39.33
2018-07-15T09:58:25.858Z,39.22
2018-07-15T10:00:56.135Z,38.86
2018-07-15T10:03:26.432Z,38.87
2018-07-15T10:05:55.209Z,39.89
2018-07-15T10:08:24.042Z,38.17
2018-07-15T10:10:53.262Z,38.74
2018-07-15T10:13:22.481Z,36.74
2018-07-15T10:15:51.272Z,37.52
2018-07-15T10:18:20.073Z,37.17
2018-07-15T10:20:48.910Z,36.10
2018-07-15T10:23:17.682Z,36.19
2018-07-15T10:25:46.461Z,37.31
2018-07-15T10:28:15.240Z,36.88
2018-07-15T10:30:44.140Z,36.89
2018-07-15T10:33:13.333Z,36.03
2018-07-15T10:35:42.317Z,37.07
2018-07-15T10:38:11.083Z,36.88
2018-07-15T10:40:39.870Z,36.84
2018-07-15T10:43:08.946Z,37.06
2018-07-15T10:45:37.728Z,36.81
2018-07-15T10:48:06.868Z,35.80
2018-07-15T10:50:35.685Z,37.24
2018-07-15T10:53:04.487Z,37.76
2018-07-15T10:55:33.297Z,37.19
2018-07-15T10:58:02.107Z,36.99
2018-07-15T11:00:38.375Z,38.10
2018-07-15T11:03:07.203Z,36.66
2018-07-15T11:05:36.192Z,36.67
2018-07-15T11:08:05.038Z,35.30
2018-07-15T11:10:33.821Z,34.95
2018-07-15T11:13:02.663Z,36.62
2018-07-15T11:15:31.509Z,34.64
2018-07-15T11:18:00.331Z,35.44
2018-07-15T11:20:29.161Z,35.93
2018-07-15T11:22:57.972Z,35.97
2018-07-15T11:25:26.771Z,35.97
2018-07-15T11:27:55.973Z,36.75
2018-07-15T11:30:24.846Z,36.91
2018-07-15T11:32:53.597Z,35.98
2018-07-15T11:35:22.389Z,37.01
2018-07-15T11:37:51.155Z,36.44
2018-07-15T11:40:19.960Z,37.46
2018-07-15T11:42:48.774Z,36.54
2018-07-15T11:45:17.990Z,35.11
2018-07-15T11:47:46.757Z,35.29
2018-07-15T11:50:15.600Z,36.33
2018-07-15T11:52:44.356Z,35.16
2018-07-15T11:55:13.131Z,34.71
2018-07-15T11:57:42.304Z,35.27
2018-07-15T12:00:11.096Z,36.19
2018-07-15T12:02:40.070Z,35.00
2018-07-15T12:05:09.064Z,36.65
2018-07-15T12:07:37.825Z,35.08
2018-07-15T12:10:07.101Z,35.90
2018-07-15T12:12:36.257Z,35.40
2018-07-15T12:15:05.462Z,34.57
2018-07-15T12:17:34.224Z,34.94
2018-07-15T12:20:03.043Z,34.65
2018-07-15T12:22:31.823Z,36.07
2018-07-15T12:25:00.586Z,36.71
2018-07-15T12:27:29.330Z,36.20
2018-07-15T12:29:58.116Z,35.73
2018-07-15T12:32:26.900Z,33.96
2018-07-15T12:34:55.699Z,32.90
2018-07-15T12:37:24.455Z,32.33
2018-07-15T12:39:53.273Z,34.12
2018-07-15T12:42:22.162Z,33.38
2018-07-15T12:44:51.150Z,32.16
2018-07-15T12:47:42.775Z,32.47
2018-07-15T12:50:11.621Z,33.33
2018-07-15T12:52:40.419Z,34.08
2018-07-15T12:55:09.233Z,33.10
2018-07-15T12:57:38.387Z,32.18
2018-07-15T13:00:07.304Z,33.26
2018-07-15T13:02:36.083Z,31.80
2018-07-15T13:05:05.240Z,31.99
2018-07-15T13:07:34.845Z,34.96
2018-07-15T13:10:03.725Z,34.82
2018-07-15T13:12:32.668Z,35.10
2018-07-15T13:15:01.534Z,36.60
2018-07-15T13:17:30.557Z,36.55
2018-07-15T13:19:59.391Z,36.67
2018-07-15T13:22:28.183Z,36.05
2018-07-15T13:24:57.170Z,35.33
2018-07-15T13:27:25.969Z,35.83
2018-07-15T13:29:54.861Z,36.80
2018-07-15T13:32:23.656Z,37.36
2018-07-15T13:34:52.532Z,36.42
2018-07-15T13:37:21.314Z,36.61
2018-07-15T13:39:50.191Z,37.84
2018-07-15T13:42:19.054Z,37.24
2018-07-15T13:44:47.824Z,39.12
2018-07-15T13:47:16.819Z,41.86
2018-07-15T13:49:45.704Z,44.14
2018-07-15T13:52:14.847Z,45.28
2018-07-15T13:54:43.678Z,44.62
2018-07-15T13:57:12.534Z,46.12
2018-07-15T13:59:41.323Z,45.88
2018-07-15T14:02:10.132Z,46.16
2018-07-15T14:04:38.993Z,46.40
2018-07-15T14:07:07.895Z,45.64
2018-07-15T14:09:37.062Z,45.91
2018-07-15T14:12:06.090Z,44.96
2018-07-15T14:14:34.910Z,44.52
2018-07-15T14:17:03.834Z,43.69
2018-07-15T14:19:32.610Z,43.20
2018-07-15T14:22:01.549Z,43.17
2018-07-15T14:24:30.340Z,42.17
2018-07-15T14:26:59.217Z,42.60
2018-07-15T14:29:28.004Z,41.74
2018-07-15T14:31:56.786Z,42.52
2018-07-15T14:34:25.578Z,42.86
2018-07-15T14:36:54.351Z,42.83
2018-07-15T14:39:29.238Z,42.11
2018-07-15T14:41:58.035Z,41.41
2018-07-15T14:44:26.875Z,39.99
2018-07-15T14:46:55.709Z,39.77
2018-07-15T14:49:24.555Z,40.85
2018-07-15T14:51:53.374Z,39.89
2018-07-15T14:54:22.174Z,40.29
2018-07-15T14:56:50.991Z,39.69
2018-07-15T14:59:21.983Z,39.92
2018-07-15T15:01:52.724Z,39.64
2018-07-15T15:04:21.950Z,39.01
2018-07-15T15:06:51.658Z,39.07
2018-07-15T15:09:20.493Z,37.78
2018-07-15T15:11:49.332Z,37.61
2018-07-15T15:14:18.181Z,38.59
2018-07-15T15:16:47.410Z,39.35
2018-07-15T15:19:16.246Z,39.73
2018-07-15T15:21:45.089Z,40.27
2018-07-15T15:24:13.917Z,40.44
2018-07-15T15:26:42.665Z,39.21
2018-07-15T15:29:11.448Z,41.29
2018-07-15T15:31:40.311Z,42.20
2018-07-15T15:34:09.153Z,41.85
2018-07-15T15:36:37.975Z,42.44
2018-07-15T15:39:06.948Z,40.93
2018-07-15T15:41:35.807Z,40.98
2018-07-15T15:44:04.682Z,40.47
2018-07-15T15:46:33.485Z,40.63
2018-07-15T15:49:02.684Z,40.34
2018-07-15T15:51:31.555Z,40.48
2018-07-15T15:54:00.338Z,39.84
2018-07-15T15:56:29.163Z,40.91
2018-07-15T15:58:58.510Z,40.46
2018-07-15T16:01:27.399Z,40.72
2018-07-15T16:03:57.823Z,41.03
2018-07-15T16:06:27.028Z,40.73
2018-07-15T16:08:55.951Z,41.19
2018-07-15T16:11:24.803Z,40.58
2018-07-15T16:13:53.627Z,41.42
2018-07-15T16:16:22.572Z,40.36
2018-07-15T16:18:51.367Z,40.28
2018-07-15T16:21:20.245Z,39.74
2018-07-15T16:23:49.463Z,39.65
2018-07-15T16:26:18.326Z,39.32
2018-07-15T16:28:47.193Z,38.07
2018-07-15T16:31:16.105Z,39.70
2018-07-15T16:33:44.975Z,40.74
2018-07-15T16:36:13.814Z,40.43
2018-07-15T16:38:42.677Z,40.29
2018-07-15T16:41:11.643Z,41.38
2018-07-15T16:43:40.472Z,40.72
2018-07-15T16:46:09.239Z,42.15
2018-07-15T16:48:38.039Z,40.44
2018-07-15T16:51:06.927Z,40.31
2018-07-15T16:53:35.797Z,40.60
2018-07-15T16:56:05.010Z,39.91
2018-07-15T16:58:34.079Z,40.59
2018-07-15T17:01:03.504Z,41.06
2018-07-15T17:03:32.632Z,39.79
2018-07-15T17:06:01.429Z,41.49
2018-07-15T17:08:30.310Z,40.60
2018-07-15T17:10:59.139Z,40.55
2018-07-15T17:13:27.968Z,40.45
2018-07-15T17:15:56.827Z,39.67
2018-07-15T17:18:25.653Z,41.66
2018-07-15T17:20:54.604Z,43.84
2018-07-15T17:23:28.883Z,44.53
2018-07-15T17:25:57.696Z,42.96
2018-07-15T17:28:26.683Z,44.52
2018-07-15T17:30:58.807Z,44.56
2018-07-15T17:33:28.400Z,43.84
2018-07-15T17:35:57.480Z,43.86
2018-07-15T17:38:26.308Z,44.49
2018-07-15T17:40:55.148Z,44.63
2018-07-15T17:43:24.086Z,43.90
2018-07-15T17:45:52.969Z,44.52
2018-07-15T17:48:22.461Z,44.47
2018-07-15T17:50:52.021Z,44.18
2018-07-15T17:53:20.898Z,44.38
2018-07-15T17:55:49.677Z,44.51
2018-07-15T17:58:18.579Z,45.08
2018-07-15T18:00:47.775Z,45.59
2018-07-15T18:03:16.597Z,46.02
2018-07-15T18:05:45.662Z,46.17
2018-07-15T18:08:14.462Z,47.35
2018-07-15T18:10:43.407Z,47.05
2018-07-15T18:13:12.433Z,46.90
2018-07-15T18:15:41.330Z,48.05
2018-07-15T18:18:10.414Z,48.17
2018-07-15T18:20:39.724Z,48.12
2018-07-15T18:23:10.940Z,48.37
2018-07-15T18:25:39.887Z,47.78
2018-07-15T18:28:08.788Z,48.05
2018-07-15T18:30:37.594Z,48.47
2018-07-15T18:33:06.557Z,49.38
2018-07-15T18:35:35.402Z,48.99
2018-07-15T18:38:04.300Z,49.42
2018-07-15T18:40:33.089Z,49.48
2018-07-15T18:43:03.128Z,50.83
2018-07-15T18:45:32.293Z,51.62
2018-07-15T18:48:01.230Z,51.13
2018-07-15T18:50:30.246Z,51.41
2018-07-15T18:52:59.102Z,52.95
2018-07-15T18:55:27.925Z,52.20
2018-07-15T18:57:56.817Z,53.31
2018-07-15T19:00:25.569Z,53.30
2018-07-15T19:02:54.387Z,53.53
2018-07-15T19:05:23.187Z,54.09
2018-07-15T19:07:53.204Z,53.97
2018-07-15T19:10:23.689Z,54.28
2018-07-15T19:12:54.633Z,54.97
2018-07-15T19:15:25.863Z,51.67
2018-07-15T19:17:56.496Z,51.72
2018-07-15T19:20:37.689Z,51.32
2018-07-15T19:23:14.921Z,51.77
2018-07-15T19:25:44.222Z,51.76
2018-07-15T19:28:13.780Z,51.46
2018-07-15T19:30:42.759Z,50.49
2018-07-15T19:33:11.603Z,51.20
2018-07-15T19:35:40.774Z,50.82
2018-07-15T19:38:09.583Z,50.33
2018-07-15T19:40:38.458Z,49.60
2018-07-15T19:43:07.400Z,49.71
2018-07-15T19:45:36.177Z,48.47
2018-07-15T19:48:04.963Z,48.37
2018-07-15T19:50:33.748Z,49.15
2018-07-15T19:53:02.530Z,49.23
2018-07-15T19:55:31.382Z,48.33
2018-07-15T19:58:00.253Z,49.59
2018-07-15T20:00:29.032Z,48.75
2018-07-15T20:02:57.790Z,48.04
2018-07-15T20:05:26.625Z,48.47
2018-07-15T20:07:55.473Z,48.52
2018-07-15T20:10:24.361Z,48.09
2018-07-15T20:12:53.270Z,49.12
2018-07-15T20:15:22.479Z,49.50
2018-07-15T20:17:51.318Z,48.93
2018-07-15T20:20:21.146Z,49.21
2018-07-15T20:22:49.873Z,49.89
2018-07-15T20:25:18.613Z,49.66
2018-07-15T20:27:47.448Z,49.93
2018-07-15T20:30:16.543Z,50.20
2018-07-15T20:32:45.379Z,50.42
2018-07-15T20:35:14.197Z,50.54
2018-07-15T20:37:42.990Z,51.47
2018-07-15T20:40:11.821Z,50.78
2018-07-15T20:42:40.600Z,51.75
2018-07-15T20:45:09.495Z,50.70
2018-07-15T20:47:38.253Z,51.58
2018-07-15T20:50:07.063Z,51.72
2018-07-15T20:52:35.959Z,50.98
2018-07-15T20:55:04.743Z,52.05
2018-07-15T20:57:33.915Z,52.09
2018-07-15T21:00:04.647Z,52.30
2018-07-15T21:02:33.476Z,51.38
2018-07-15T21:05:02.255Z,51.45
2018-07-15T21:07:31.081Z,52.30
2018-07-15T21:09:59.869Z,51.57
2018-07-15T21:12:28.658Z,51.78
2018-07-15T21:14:57.495Z,52.11
2018-07-15T21:17:26.265Z,51.50
2018-07-15T21:19:55.064Z,51.33
2018-07-15T21:22:23.802Z,52.27
2018-07-15T21:24:52.690Z,51.70
2018-07-15T21:27:21.517Z,52.21
2018-07-15T21:29:50.770Z,51.72
2018-07-15T21:32:19.612Z,52.62
2018-07-15T21:34:49.017Z,53.29
2018-07-15T21:37:17.802Z,52.65
2018-07-15T21:39:46.598Z,53.14
2018-07-15T21:42:15.435Z,52.77
2018-07-15T21:44:44.274Z,52.37
2018-07-15T21:47:13.349Z,52.91
2018-07-15T21:49:42.228Z,52.89
2018-07-15T21:52:11.350Z,51.65
2018-07-15T21:54:40.171Z,52.48
2018-07-15T21:57:09.046Z,51.49
2018-07-15T21:59:37.828Z,51.62
2018-07-15T22:02:06.820Z,51.55
2018-07-15T22:04:35.648Z,52.32
2018-07-15T22:07:15.587Z,51.85
2018-07-15T22:09:55.993Z,51.79
2018-07-15T22:12:25.166Z,52.45
2018-07-15T22:14:54.327Z,53.16
2018-07-15T22:17:23.961Z,52.94
2018-07-15T22:19:52.791Z,53.13
2018-07-15T22:22:21.591Z,53.08
2018-07-15T22:24:50.359Z,52.30
2018-07-15T22:27:19.394Z,52.90
2018-07-15T22:29:48.185Z,52.04
2018-07-15T22:32:16.953Z,52.45
2018-07-15T22:34:45.667Z,53.56
2018-07-15T22:37:14.421Z,52.61
2018-07-15T22:39:43.433Z,53.87
2018-07-15T22:42:12.503Z,53.44
2018-07-15T22:44:41.249Z,53.89
2018-07-15T22:47:10.069Z,53.62
2018-07-15T22:49:38.869Z,53.85
2018-07-15T22:52:07.763Z,52.91
2018-07-15T22:54:36.585Z,53.02
2018-07-15T22:57:05.727Z,53.05
2018-07-15T22:59:34.524Z,52.89
2018-07-15T23:02:03.379Z,53.74
2018-07-15T23:05:49.092Z,53.33
2018-07-15T23:08:17.968Z,54.08
2018-07-15T23:10:47.128Z,53.42
2018-07-15T23:13:16.386Z,53.31
2018-07-15T23:15:46.155Z,53.25
2018-07-15T23:18:14.923Z,53.83
2018-07-15T23:20:44.491Z,53.89
2018-07-15T23:23:13.785Z,53.78
2018-07-15T23:25:42.569Z,53.68
2018-07-15T23:28:12.399Z,53.58
2018-07-15T23:30:41.833Z,54.37
2018-07-15T23:33:11.451Z,53.49
2018-07-15T23:35:40.241Z,54.12
2018-07-15T23:38:08.998Z,53.56
2018-07-15T23:40:37.855Z,53.75
2018-07-15T23:43:06.744Z,53.32
2018-07-15T23:45:36.262Z,54.29
2018-07-15T23:48:05.118Z,53.34
2018-07-15T23:50:33.957Z,53.79
2018-07-15T23:53:02.777Z,54.71
2018-07-15T23:55:31.567Z,53.64
2018-07-15T23:58:00.362Z,53.43
